sensor_id;sensor_type;location;lat;lon;timestamp;pressure;altitude;pressure_sealevel;temperature;humidity
71735;BME280;59577;52.122;5.406;2023-03-20T00:01:22;102029.50;;;8.32;90.66
71735;BME280;59577;52.122;5.406;2023-03-20T00:03:50;102029.31;;;8.28;90.46
71735;BME280;59577;52.122;5.406;2023-03-20T00:06:21;102022.66;;;8.26;90.47
71735;BME280;59577;52.122;5.406;2023-03-20T00:08:50;102028.06;;;8.26;90.35
71735;BME280;59577;52.122;5.406;2023-03-20T00:13:47;102030.09;;;8.20;90.34
71735;BME280;59577;52.122;5.406;2023-03-20T00:16:15;102027.38;;;8.20;90.48
71735;BME280;59577;52.122;5.406;2023-03-20T00:18:54;102028.16;;;8.21;90.50
71735;BME280;59577;52.122;5.406;2023-03-20T00:21:22;102036.25;;;8.21;90.75
71735;BME280;59577;52.122;5.406;2023-03-20T00:23:48;102031.34;;;8.23;90.71
71735;BME280;59577;52.122;5.406;2023-03-20T00:26:18;102019.91;;;8.17;90.23
71735;BME280;59577;52.122;5.406;2023-03-20T00:28:46;102021.47;;;8.18;90.50
71735;BME280;59577;52.122;5.406;2023-03-20T00:31:23;102015.59;;;8.16;90.10
71735;BME280;59577;52.122;5.406;2023-03-20T00:33:56;102014.81;;;8.16;90.92
71735;BME280;59577;52.122;5.406;2023-03-20T00:36:23;102017.81;;;8.14;90.79
71735;BME280;59577;52.122;5.406;2023-03-20T00:38:50;102001.75;;;8.09;90.91
71735;BME280;59577;52.122;5.406;2023-03-20T00:41:24;102004.25;;;8.05;90.83
71735;BME280;59577;52.122;5.406;2023-03-20T00:44:17;102003.66;;;8.08;91.09
71735;BME280;59577;52.122;5.406;2023-03-20T00:47:01;102014.03;;;8.15;91.12
71735;BME280;59577;52.122;5.406;2023-03-20T00:49:33;102029.25;;;8.20;90.90
71735;BME280;59577;52.122;5.406;2023-03-20T00:52:01;102025.16;;;8.22;90.69
71735;BME280;59577;52.122;5.406;2023-03-20T00:54:53;102035.19;;;8.22;90.87
71735;BME280;59577;52.122;5.406;2023-03-20T00:57:27;102043.56;;;8.20;90.51
71735;BME280;59577;52.122;5.406;2023-03-20T01:00:07;102055.16;;;8.21;90.82
71735;BME280;59577;52.122;5.406;2023-03-20T01:02:39;102059.75;;;8.20;91.08
71735;BME280;59577;52.122;5.406;2023-03-20T01:05:06;102078.63;;;8.20;91.05
71735;BME280;59577;52.122;5.406;2023-03-20T01:07:32;102074.03;;;8.21;90.23
71735;BME280;59577;52.122;5.406;2023-03-20T01:09:59;102074.03;;;8.21;90.51
71735;BME280;59577;52.122;5.406;2023-03-20T01:12:31;102075.13;;;8.20;89.99
71735;BME280;59577;52.122;5.406;2023-03-20T01:14:58;102055.75;;;8.18;89.76
71735;BME280;59577;52.122;5.406;2023-03-20T01:17:26;102050.28;;;8.09;89.88
71735;BME280;59577;52.122;5.406;2023-03-20T01:19:54;102035.63;;;8.01;89.67
71735;BME280;59577;52.122;5.406;2023-03-20T01:22:20;102058.59;;;7.99;89.27
71735;BME280;59577;52.122;5.406;2023-03-20T01:24:48;102068.78;;;8.02;89.20
71735;BME280;59577;52.122;5.406;2023-03-20T01:27:19;102068.47;;;8.03;89.37
71735;BME280;59577;52.122;5.406;2023-03-20T01:29:47;102060.22;;;8.00;89.32
71735;BME280;59577;52.122;5.406;2023-03-20T01:32:16;102052.72;;;7.97;89.63
71735;BME280;59577;52.122;5.406;2023-03-20T01:34:43;102057.63;;;7.95;89.59
71735;BME280;59577;52.122;5.406;2023-03-20T01:37:17;102065.91;;;7.98;89.68
71735;BME280;59577;52.122;5.406;2023-03-20T01:39:44;102066.38;;;8.00;89.32
71735;BME280;59577;52.122;5.406;2023-03-20T01:42:14;102051.28;;;7.99;88.86
71735;BME280;59577;52.122;5.406;2023-03-20T01:44:40;102045.41;;;7.97;88.81
71735;BME280;59577;52.122;5.406;2023-03-20T01:47:15;102054.75;;;7.91;88.99
71735;BME280;59577;52.122;5.406;2023-03-20T01:52:50;102051.22;;;7.90;88.92
71735;BME280;59577;52.122;5.406;2023-03-20T01:55:18;102042.34;;;7.90;88.89
71735;BME280;59577;52.122;5.406;2023-03-20T01:57:46;102047.53;;;7.86;88.16
71735;BME280;59577;52.122;5.406;2023-03-20T02:00:14;102042.06;;;7.78;88.12
71735;BME280;59577;52.122;5.406;2023-03-20T02:02:46;102037.09;;;7.71;88.25
71735;BME280;59577;52.122;5.406;2023-03-20T02:05:15;102042.09;;;7.64;87.88
71735;BME280;59577;52.122;5.406;2023-03-20T02:07:47;102047.19;;;7.65;88.53
71735;BME280;59577;52.122;5.406;2023-03-20T02:10:15;102054.69;;;7.68;88.79
71735;BME280;59577;52.122;5.406;2023-03-20T02:12:50;102048.66;;;7.71;88.36
71735;BME280;59577;52.122;5.406;2023-03-20T02:15:17;102038.31;;;7.65;88.13
71735;BME280;59577;52.122;5.406;2023-03-20T02:17:44;102040.28;;;7.59;88.35
71735;BME280;59577;52.122;5.406;2023-03-20T02:34:15;102018.75;;;7.45;89.00
71735;BME280;59577;52.122;5.406;2023-03-20T02:44:52;102030.25;;;7.37;89.72
71735;BME280;59577;52.122;5.406;2023-03-20T02:47:30;102034.03;;;7.36;89.51
71735;BME280;59577;52.122;5.406;2023-03-20T02:58:50;102006.63;;;7.34;89.53
71735;BME280;59577;52.122;5.406;2023-03-20T03:01:25;102001.03;;;7.30;89.17
71735;BME280;59577;52.122;5.406;2023-03-20T03:04:03;101990.06;;;7.27;89.02
71735;BME280;59577;52.122;5.406;2023-03-20T03:06:40;101979.69;;;7.20;89.29
71735;BME280;59577;52.122;5.406;2023-03-20T03:09:18;101965.22;;;7.16;89.29
71735;BME280;59577;52.122;5.406;2023-03-20T03:11:52;101961.03;;;7.10;89.35
71735;BME280;59577;52.122;5.406;2023-03-20T03:14:34;101971.63;;;7.06;89.20
71735;BME280;59577;52.122;5.406;2023-03-20T03:17:06;101963.03;;;7.04;89.44
71735;BME280;59577;52.122;5.406;2023-03-20T03:19:36;101979.28;;;6.99;89.40
71735;BME280;59577;52.122;5.406;2023-03-20T03:22:04;101967.50;;;6.95;89.92
71735;BME280;59577;52.122;5.406;2023-03-20T03:24:36;101983.16;;;6.93;89.81
71735;BME280;59577;52.122;5.406;2023-03-20T03:27:35;101986.16;;;6.91;89.81
71735;BME280;59577;52.122;5.406;2023-03-20T03:30:18;101985.06;;;6.92;90.03
71735;BME280;59577;52.122;5.406;2023-03-20T03:33:13;101976.50;;;6.90;90.16
71735;BME280;59577;52.122;5.406;2023-03-20T03:35:44;101976.59;;;6.85;89.94
71735;BME280;59577;52.122;5.406;2023-03-20T03:41:19;101963.13;;;6.71;90.22
71735;BME280;59577;52.122;5.406;2023-03-20T03:43:57;101970.69;;;6.69;90.05
71735;BME280;59577;52.122;5.406;2023-03-20T03:48:59;101962.78;;;6.59;90.38
71735;BME280;59577;52.122;5.406;2023-03-20T03:51:30;101967.47;;;6.53;90.49
71735;BME280;59577;52.122;5.406;2023-03-20T03:54:03;101958.31;;;6.54;91.00
71735;BME280;59577;52.122;5.406;2023-03-20T03:56:33;101960.28;;;6.49;90.81
71735;BME280;59577;52.122;5.406;2023-03-20T03:59:07;101955.50;;;6.46;90.97
71735;BME280;59577;52.122;5.406;2023-03-20T04:01:37;101955.22;;;6.47;90.82
71735;BME280;59577;52.122;5.406;2023-03-20T04:04:11;101954.41;;;6.47;91.16
71735;BME280;59577;52.122;5.406;2023-03-20T04:06:40;101941.75;;;6.47;91.04
71735;BME280;59577;52.122;5.406;2023-03-20T04:09:08;101946.72;;;6.40;91.28
71735;BME280;59577;52.122;5.406;2023-03-20T04:11:44;101941.94;;;6.37;90.79
71735;BME280;59577;52.122;5.406;2023-03-20T04:14:14;101942.22;;;6.35;91.06
71735;BME280;59577;52.122;5.406;2023-03-20T04:16:41;101945.22;;;6.34;91.14
71735;BME280;59577;52.122;5.406;2023-03-20T04:19:07;101934.25;;;6.30;91.20
71735;BME280;59577;52.122;5.406;2023-03-20T04:21:34;101941.75;;;6.33;91.15
71735;BME280;59577;52.122;5.406;2023-03-20T04:24:01;101940.91;;;6.33;91.61
71735;BME280;59577;52.122;5.406;2023-03-20T04:26:28;101940.63;;;6.34;91.43
71735;BME280;59577;52.122;5.406;2023-03-20T04:28:55;101939.53;;;6.35;91.52
71735;BME280;59577;52.122;5.406;2023-03-20T04:31:22;101941.13;;;6.36;91.43
71735;BME280;59577;52.122;5.406;2023-03-20T04:33:49;101935.44;;;6.38;91.41
71735;BME280;59577;52.122;5.406;2023-03-20T04:36:15;101941.84;;;6.42;91.19
71735;BME280;59577;52.122;5.406;2023-03-20T04:38:49;101944.03;;;6.40;91.02
71735;BME280;59577;52.122;5.406;2023-03-20T04:41:17;101946.22;;;6.38;91.18
71735;BME280;59577;52.122;5.406;2023-03-20T04:43:46;101944.53;;;6.42;91.05
71735;BME280;59577;52.122;5.406;2023-03-20T04:46:13;101941.66;;;6.38;91.19
71735;BME280;59577;52.122;5.406;2023-03-20T04:48:39;101940.34;;;6.36;90.71
71735;BME280;59577;52.122;5.406;2023-03-20T04:51:06;101947.53;;;6.40;91.01
71735;BME280;59577;52.122;5.406;2023-03-20T04:53:35;101945.34;;;6.43;91.22
71735;BME280;59577;52.122;5.406;2023-03-20T04:56:10;101944.75;;;6.46;91.09
71735;BME280;59577;52.122;5.406;2023-03-20T04:58:37;101937.97;;;6.48;90.97
71735;BME280;59577;52.122;5.406;2023-03-20T05:01:03;101940.38;;;6.50;90.93
71735;BME280;59577;52.122;5.406;2023-03-20T05:03:30;101933.16;;;6.45;90.79
71735;BME280;59577;52.122;5.406;2023-03-20T05:05:57;101932.69;;;6.43;90.64
71735;BME280;59577;52.122;5.406;2023-03-20T05:08:24;101933.16;;;6.45;90.90
71735;BME280;59577;52.122;5.406;2023-03-20T05:11:00;101928.81;;;6.49;90.79
71735;BME280;59577;52.122;5.406;2023-03-20T05:13:27;101929.09;;;6.48;90.79
71735;BME280;59577;52.122;5.406;2023-03-20T05:15:56;101918.66;;;6.46;90.93
71735;BME280;59577;52.122;5.406;2023-03-20T05:18:24;101926.72;;;6.46;90.88
71735;BME280;59577;52.122;5.406;2023-03-20T05:20:50;101924.59;;;6.43;90.81
71735;BME280;59577;52.122;5.406;2023-03-20T05:23:17;101927.28;;;6.43;90.86
71735;BME280;59577;52.122;5.406;2023-03-20T05:25:55;101921.41;;;6.41;91.16
71735;BME280;59577;52.122;5.406;2023-03-20T05:28:25;101934.56;;;6.43;91.18
71735;BME280;59577;52.122;5.406;2023-03-20T05:30:52;101931.59;;;6.44;90.97
71735;BME280;59577;52.122;5.406;2023-03-20T05:33:23;101932.09;;;6.46;91.06
71735;BME280;59577;52.122;5.406;2023-03-20T05:35:50;101927.59;;;6.42;90.95
71735;BME280;59577;52.122;5.406;2023-03-20T05:38:16;101923.31;;;6.40;90.88
71735;BME280;59577;52.122;5.406;2023-03-20T05:40:59;101925.19;;;6.40;90.89
71735;BME280;59577;52.122;5.406;2023-03-20T05:43:26;101937.06;;;6.39;90.94
71735;BME280;59577;52.122;5.406;2023-03-20T05:46:09;101939.75;;;6.39;91.06
71735;BME280;59577;52.122;5.406;2023-03-20T05:48:36;101941.31;;;6.40;90.96
71735;BME280;59577;52.122;5.406;2023-03-20T05:51:04;101947.81;;;6.39;91.13
71735;BME280;59577;52.122;5.406;2023-03-20T05:53:57;101947.53;;;6.40;91.12
71735;BME280;59577;52.122;5.406;2023-03-20T05:56:24;101949.41;;;6.40;90.76
71735;BME280;59577;52.122;5.406;2023-03-20T05:58:51;101954.97;;;6.44;90.94
71735;BME280;59577;52.122;5.406;2023-03-20T06:01:23;101955.59;;;6.40;90.87
71735;BME280;59577;52.122;5.406;2023-03-20T06:03:53;101959.88;;;6.42;90.87
71735;BME280;59577;52.122;5.406;2023-03-20T06:06:19;101956.59;;;6.45;91.25
71735;BME280;59577;52.122;5.406;2023-03-20T06:08:46;101949.91;;;6.42;91.13
71735;BME280;59577;52.122;5.406;2023-03-20T06:11:13;101950.13;;;6.46;91.15
71735;BME280;59577;52.122;5.406;2023-03-20T06:13:39;101946.63;;;6.45;90.92
71735;BME280;59577;52.122;5.406;2023-03-20T06:16:06;101949.31;;;6.45;90.92
71735;BME280;59577;52.122;5.406;2023-03-20T06:18:33;101946.31;;;6.47;90.95
71735;BME280;59577;52.122;5.406;2023-03-20T06:21:00;101947.34;;;6.51;90.89
71735;BME280;59577;52.122;5.406;2023-03-20T06:23:27;101947.56;;;6.54;90.80
71735;BME280;59577;52.122;5.406;2023-03-20T06:25:54;101949.75;;;6.52;91.07
71735;BME280;59577;52.122;5.406;2023-03-20T06:28:30;101948.63;;;6.53;91.02
71735;BME280;59577;52.122;5.406;2023-03-20T06:30:57;101960.72;;;6.56;90.54
71735;BME280;59577;52.122;5.406;2023-03-20T06:33:24;101966.09;;;6.56;90.71
71735;BME280;59577;52.122;5.406;2023-03-20T06:35:57;101965.56;;;6.54;90.71
71735;BME280;59577;52.122;5.406;2023-03-20T06:38:24;101974.16;;;6.56;90.63
71735;BME280;59577;52.122;5.406;2023-03-20T06:40:50;101979.84;;;6.54;90.56
71735;BME280;59577;52.122;5.406;2023-03-20T06:43:27;101970.84;;;6.59;90.43
71735;BME280;59577;52.122;5.406;2023-03-20T06:45:53;101971.97;;;6.58;90.46
71735;BME280;59577;52.122;5.406;2023-03-20T06:48:21;101961.50;;;6.56;90.91
71735;BME280;59577;52.122;5.406;2023-03-20T06:50:49;101975.25;;;6.55;90.69
71735;BME280;59577;52.122;5.406;2023-03-20T06:53:16;101978.72;;;6.55;90.71
71735;BME280;59577;52.122;5.406;2023-03-20T06:55:47;101982.44;;;6.59;90.38
71735;BME280;59577;52.122;5.406;2023-03-20T06:58:17;101979.94;;;6.63;90.57
71735;BME280;59577;52.122;5.406;2023-03-20T07:00:44;101979.56;;;6.70;90.80
71735;BME280;59577;52.122;5.406;2023-03-20T07:03:12;101985.44;;;6.72;90.36
71735;BME280;59577;52.122;5.406;2023-03-20T07:05:39;101975.56;;;6.67;90.55
71735;BME280;59577;52.122;5.406;2023-03-20T07:08:06;101974.78;;;6.67;90.37
71735;BME280;59577;52.122;5.406;2023-03-20T07:10:34;101987.34;;;6.71;90.28
71735;BME280;59577;52.122;5.406;2023-03-20T07:13:07;101982.53;;;6.68;90.05
71735;BME280;59577;52.122;5.406;2023-03-20T07:15:35;101980.75;;;6.64;90.24
71735;BME280;59577;52.122;5.406;2023-03-20T07:18:02;101986.53;;;6.71;90.35
71735;BME280;59577;52.122;5.406;2023-03-20T07:20:29;101983.03;;;6.70;90.17
71735;BME280;59577;52.122;5.406;2023-03-20T07:22:56;101980.56;;;6.74;90.24
71735;BME280;59577;52.122;5.406;2023-03-20T07:25:23;101977.78;;;6.79;90.13
71735;BME280;59577;52.122;5.406;2023-03-20T07:28:08;101982.38;;;6.78;90.20
71735;BME280;59577;52.122;5.406;2023-03-20T07:30:35;101981.25;;;6.80;90.08
71735;BME280;59577;52.122;5.406;2023-03-20T07:33:02;101983.34;;;6.83;90.06
71735;BME280;59577;52.122;5.406;2023-03-20T07:35:37;101979.97;;;6.77;89.87
71735;BME280;59577;52.122;5.406;2023-03-20T07:38:15;101993.41;;;6.77;90.11
71735;BME280;59577;52.122;5.406;2023-03-20T07:40:42;101985.06;;;6.78;89.98
71735;BME280;59577;52.122;5.406;2023-03-20T07:43:09;101989.81;;;6.82;90.06
71735;BME280;59577;52.122;5.406;2023-03-20T07:45:43;101986.03;;;6.83;90.05
71735;BME280;59577;52.122;5.406;2023-03-20T07:48:12;101985.97;;;6.88;89.57
71735;BME280;59577;52.122;5.406;2023-03-20T07:50:45;101993.06;;;6.97;89.62
71735;BME280;59577;52.122;5.406;2023-03-20T07:53:14;101983.38;;;6.96;89.75
71735;BME280;59577;52.122;5.406;2023-03-20T07:55:44;101976.28;;;7.01;89.82
71735;BME280;59577;52.122;5.406;2023-03-20T07:58:11;101989.63;;;7.06;89.64
71735;BME280;59577;52.122;5.406;2023-03-20T08:00:38;101983.47;;;7.05;89.26
71735;BME280;59577;52.122;5.406;2023-03-20T08:03:05;101987.78;;;7.06;89.07
71735;BME280;59577;52.122;5.406;2023-03-20T08:05:33;101987.78;;;7.06;88.75
71735;BME280;59577;52.122;5.406;2023-03-20T08:08:05;101980.09;;;7.13;88.90
71735;BME280;59577;52.122;5.406;2023-03-20T08:10:33;101983.16;;;7.21;88.69
71735;BME280;59577;52.122;5.406;2023-03-20T08:13:03;101983.66;;;7.23;87.85
71735;BME280;59577;52.122;5.406;2023-03-20T08:15:30;101983.75;;;7.31;87.70
71735;BME280;59577;52.122;5.406;2023-03-20T08:17:57;101979.09;;;7.37;87.13
71735;BME280;59577;52.122;5.406;2023-03-20T08:20:32;101977.38;;;7.41;86.94
71735;BME280;59577;52.122;5.406;2023-03-20T08:22:59;101983.06;;;7.40;85.83
71735;BME280;59577;52.122;5.406;2023-03-20T08:25:25;101987.63;;;7.53;86.57
71735;BME280;59577;52.122;5.406;2023-03-20T08:27:52;101988.81;;;7.61;86.14
71735;BME280;59577;52.122;5.406;2023-03-20T08:30:20;101989.00;;;7.64;85.85
71735;BME280;59577;52.122;5.406;2023-03-20T08:32:50;101979.03;;;7.65;85.77
71735;BME280;59577;52.122;5.406;2023-03-20T08:35:17;101982.41;;;7.70;85.11
71735;BME280;59577;52.122;5.406;2023-03-20T08:37:58;101978.19;;;7.78;84.67
71735;BME280;59577;52.122;5.406;2023-03-20T08:40:26;101977.50;;;7.72;84.29
71735;BME280;59577;52.122;5.406;2023-03-20T11:45:14;101919.72;;;8.55;90.35
71735;BME280;59577;52.122;5.406;2023-03-20T11:47:42;101910.53;;;8.65;90.40
71735;BME280;59577;52.122;5.406;2023-03-20T11:50:35;101916.91;;;8.69;89.73
71735;BME280;59577;52.122;5.406;2023-03-20T11:53:25;101912.28;;;8.70;90.14
71735;BME280;59577;52.122;5.406;2023-03-20T11:56:12;101917.56;;;8.75;90.54
71735;BME280;59577;52.122;5.406;2023-03-20T12:01:19;101919.13;;;8.67;89.88
71735;BME280;59577;52.122;5.406;2023-03-20T12:04:01;101915.34;;;8.77;90.54
71735;BME280;59577;52.122;5.406;2023-03-20T12:09:25;101907.78;;;8.96;90.24
71735;BME280;59577;52.122;5.406;2023-03-20T12:11:58;101915.41;;;9.03;91.10
71735;BME280;59577;52.122;5.406;2023-03-20T12:14:53;101906.69;;;9.06;90.52
71735;BME280;59577;52.122;5.406;2023-03-20T12:54:06;101900.50;;;9.14;93.22
71735;BME280;59577;52.122;5.406;2023-03-20T13:34:05;101867.56;;;8.77;96.05
71735;BME280;59577;52.122;5.406;2023-03-20T13:39:48;101859.78;;;8.76;96.62
71735;BME280;59577;52.122;5.406;2023-03-20T13:42:21;101860.38;;;8.64;96.74
71735;BME280;59577;52.122;5.406;2023-03-20T13:45:33;101858.63;;;8.68;96.43
71735;BME280;59577;52.122;5.406;2023-03-20T13:51:01;101852.44;;;8.68;97.59
71735;BME280;59577;52.122;5.406;2023-03-20T14:05:40;101858.19;;;8.83;98.09
71735;BME280;59577;52.122;5.406;2023-03-20T14:08:51;101850.72;;;8.80;97.85
71735;BME280;59577;52.122;5.406;2023-03-20T14:11:47;101846.13;;;8.81;97.49
71735;BME280;59577;52.122;5.406;2023-03-20T15:40:20;101826.13;;;8.42;100.00
71735;BME280;59577;52.122;5.406;2023-03-20T17:05:57;101800.56;;;8.31;100.00
71735;BME280;59577;52.122;5.406;2023-03-20T17:08:41;101798.34;;;8.33;100.00
71735;BME280;59577;52.122;5.406;2023-03-20T17:20:27;101793.25;;;8.31;100.00
71735;BME280;59577;52.122;5.406;2023-03-20T17:22:54;101793.72;;;8.33;100.00
71735;BME280;59577;52.122;5.406;2023-03-20T17:25:21;101795.34;;;8.34;100.00
71735;BME280;59577;52.122;5.406;2023-03-20T17:30:30;101799.59;;;8.35;100.00
71735;BME280;59577;52.122;5.406;2023-03-20T17:33:03;101809.13;;;8.33;100.00
71735;BME280;59577;52.122;5.406;2023-03-20T17:35:31;101804.53;;;8.33;100.00
71735;BME280;59577;52.122;5.406;2023-03-20T17:37:58;101808.31;;;8.32;100.00
71735;BME280;59577;52.122;5.406;2023-03-20T17:40:26;101808.00;;;8.34;100.00
71735;BME280;59577;52.122;5.406;2023-03-20T17:42:53;101804.53;;;8.33;100.00
71735;BME280;59577;52.122;5.406;2023-03-20T17:49:03;101811.00;;;8.32;100.00
71735;BME280;59577;52.122;5.406;2023-03-20T17:51:32;101809.44;;;8.31;100.00
71735;BME280;59577;52.122;5.406;2023-03-20T17:54:00;101815.00;;;8.35;100.00
71735;BME280;59577;52.122;5.406;2023-03-20T17:56:29;101805.31;;;8.34;100.00
71735;BME280;59577;52.122;5.406;2023-03-20T17:59:32;101802.31;;;8.35;100.00
71735;BME280;59577;52.122;5.406;2023-03-20T18:02:00;101798.50;;;8.36;100.00
71735;BME280;59577;52.122;5.406;2023-03-20T18:16:24;101804.06;;;8.40;100.00
71735;BME280;59577;52.122;5.406;2023-03-20T18:58:14;101802.25;;;8.58;100.00
71735;BME280;59577;52.122;5.406;2023-03-20T19:01:07;101806.53;;;8.59;100.00
71735;BME280;59577;52.122;5.406;2023-03-20T19:09:50;101807.50;;;8.63;100.00
71735;BME280;59577;52.122;5.406;2023-03-20T19:12:16;101804.16;;;8.66;100.00
71735;BME280;59577;52.122;5.406;2023-03-20T19:17:32;101800.69;;;8.65;100.00
71735;BME280;59577;52.122;5.406;2023-03-20T19:19:58;101797.16;;;8.65;100.00
71735;BME280;59577;52.122;5.406;2023-03-20T19:38:28;101789.44;;;8.72;100.00
71735;BME280;59577;52.122;5.406;2023-03-20T19:41:01;101787.03;;;8.71;100.00
71735;BME280;59577;52.122;5.406;2023-03-20T19:52:31;101777.19;;;8.75;100.00
71735;BME280;59577;52.122;5.406;2023-03-20T20:10:56;101782.75;;;8.78;100.00
71735;BME280;59577;52.122;5.406;2023-03-20T20:32:28;101770.06;;;8.88;100.00
71735;BME280;59577;52.122;5.406;2023-03-20T20:45:39;101770.41;;;8.95;100.00
71735;BME280;59577;52.122;5.406;2023-03-20T20:48:06;101770.09;;;8.96;100.00
71735;BME280;59577;52.122;5.406;2023-03-20T20:51:16;101765.00;;;8.95;100.00
71735;BME280;59577;52.122;5.406;2023-03-20T20:53:43;101769.25;;;8.96;100.00
71735;BME280;59577;52.122;5.406;2023-03-20T20:56:09;101761.16;;;8.96;100.00
71735;BME280;59577;52.122;5.406;2023-03-20T20:58:36;101761.97;;;8.96;100.00
71735;BME280;59577;52.122;5.406;2023-03-20T21:01:03;101765.16;;;8.98;100.00
71735;BME280;59577;52.122;5.406;2023-03-20T21:03:29;101757.38;;;8.97;100.00
71735;BME280;59577;52.122;5.406;2023-03-20T21:06:02;101761.97;;;8.96;100.00
71735;BME280;59577;52.122;5.406;2023-03-20T21:08:29;101766.56;;;8.96;100.00
71735;BME280;59577;52.122;5.406;2023-03-20T21:10:56;101758.94;;;8.98;100.00
71735;BME280;59577;52.122;5.406;2023-03-20T21:13:22;101764.34;;;8.98;100.00
71735;BME280;59577;52.122;5.406;2023-03-20T21:15:58;101760.53;;;8.99;100.00
71735;BME280;59577;52.122;5.406;2023-03-20T21:18:25;101765.16;;;8.98;100.00
71735;BME280;59577;52.122;5.406;2023-03-20T21:20:51;101770.56;;;8.98;100.00
71735;BME280;59577;52.122;5.406;2023-03-20T21:23:18;101761.31;;;8.99;100.00
71735;BME280;59577;52.122;5.406;2023-03-20T21:25:45;101770.56;;;8.98;100.00
71735;BME280;59577;52.122;5.406;2023-03-20T21:28:13;101765.63;;;9.00;100.00
71735;BME280;59577;52.122;5.406;2023-03-20T21:30:40;101762.13;;;9.00;100.00
71735;BME280;59577;52.122;5.406;2023-03-20T21:33:21;101771.03;;;9.00;100.00
